Davenport, ND (58021)

9:50 AM CST on December 05, 2016 (GMT -0600)
Anderson Horace | | Change Station
Active Advisory: Winter Weather Advisory

Elev 896 ft 46.78 °N, 96.89 °W | Updated 7 minutes ago

Clear
Clear
28.3 °F
Feels Like 28 °F
N
1.0
Wind Variable Wind from ENE
Gusts 3.0 mph

Today
High -- | Low -- °F
--% Chance of Precip.
Yesterday
High -- | Low -- °F
Precip. -- in
Pressure 29.69 in
Visibility 10.0 miles
Clouds Clear
Windchill 28 °F
Dew Point 19 °F
Humidity 68%
Rainfall 0.00 in
Snow Depth Not available.
7:57 AM 4:40 PM
Waxing Crescent, 32% visible
METAR KFAR 051453Z 07004KT 10SM CLR M05/M07 A2965 RMK AO2 SLP054 I3000 T10501067 56008
Pressure 29.69 in
Visibility 10.0 miles
Clouds Clear
Windchill 28 °F
Dew Point 19 °F
Humidity 68%
Rainfall 0.00 in
Snow Depth Not available.
7:57 AM 4:40 PM
Waxing Crescent, 32% visible
METAR KFAR 051453Z 07004KT 10SM CLR M05/M07 A2965 RMK AO2 SLP054 I3000 T10501067 56008

10-Day Weather Forecast

Almanac

Astronomy

Dec. 05, 2016 Rise Set
Actual Time
Civil Twilight
Nautical Twilight
Astronomical Twilight
Moon
Length of Visible Light
Length of Day
Tomorrow will be .
, % of the Moon is Illuminated

Today's Extremes

State Highs State Lows

Community

WunderPhotos

Upload Photos

1,955,780 photos uploaded!

WunderBlog® & News

Nearby

Air Quality

  Air Quality AQ Index Pollutant
Not available.

Snow Depth

Station Depth Elevation

Earthquake Activity

City Distance Mag. Time & Date
Minimum magnitude displayed is 2.5.

Coastal Water Temperatures

Place Temperature

Stations

Nearby Weather Stations

Station Location Temp. Windchill Dew Point Humidity Wind Precip. Elev Updated Type
                   

Watches & Warnings

Winter Weather Advisory
Issued: 3:58 AM CST Dec. 5, 2016 – National Weather Service

... Winter Weather Advisory in effect from 3 PM this afternoon to
6 PM CST Tuesday...

The National Weather Service in Grand Forks has issued a Winter
Weather Advisory for snow and blowing snow... which is in effect
from 3 PM this afternoon to 6 PM CST Tuesday.

* Timing... expect a wintry mix to develop around 3 PM and then
diminish around 6 PM Tuesday.

* Precipitation rates... the heaviest snowfall rates will occur
between 4 PM and 10 PM this evening.

* Snow accumulations... total snow accumulations of 3 to 6 inches
are expected.

* Winds / visibilities... look for reduced visibilities at times.
Tree branches could fall as well.

* Impacts... plan on difficult driving conditions... including
during the evening commute.

Precautionary/preparedness actions...

A Winter Weather Advisory means that periods of snow or sleet will
cause travel difficulties. Be prepared for slippery roads and
limited visibilities... and use caution while driving. The latest
Road conditions for the state you are calling from can be obtained
by calling 5 1 1.